Time;durP1;ratioP1;P1;durP2;ratioP2;P2;SDS_P1;SDS_P2;PMS_P1;PMS_P2;Temp;Humidity;BMP_temperature;BMP_pressure;BME280_temperature;BME280_humidity;BME280_pressure;Samples;Min_cycle;Max_cycle;Signal;HPM_P1;HPM_P2
2021/12/15 00:02:22;;;;;;;33.90;14.10;;;9.10;99.90;;;;;;5043294;28;20448;-55
2021/12/15 00:04:51;;;;;;;27.27;13.73;;;9.10;99.90;;;;;;5037827;28;20479;-55
2021/12/15 00:07:19;;;;;;;30.90;14.87;;;9.10;99.90;;;;;;5044100;28;20453;-56
2021/12/15 00:09:46;;;;;;;39.53;15.70;;;9.10;99.90;;;;;;5040482;28;20476;-53
2021/12/15 00:12:16;;;;;;;22.53;13.40;;;9.10;99.90;;;;;;5042831;28;20467;-53
2021/12/15 00:14:44;;;;;;;25.23;12.07;;;9.00;99.90;;;;;;5043637;28;20452;-56
2021/12/15 00:17:11;;;;;;;33.57;12.53;;;9.00;99.90;;;;;;5050893;28;20463;-54
2021/12/15 00:19:39;;;;;;;28.20;11.87;;;9.10;99.90;;;;;;5050308;28;20488;-52
2021/12/15 00:22:07;;;;;;;29.40;13.03;;;9.10;99.90;;;;;;5050134;28;20458;-53
2021/12/15 00:24:34;;;;;;;34.17;14.60;;;9.00;99.90;;;;;;5050793;28;21017;-54
2021/12/15 00:27:01;;;;;;;30.47;12.70;;;9.10;99.90;;;;;;5050772;28;20474;-54
2021/12/15 00:29:29;;;;;;;27.80;13.67;;;9.10;99.90;;;;;;5050884;28;20468;-51
2021/12/15 00:31:57;;;;;;;34.47;13.33;;;9.10;99.90;;;;;;5051079;28;20454;-55
2021/12/15 00:34:25;;;;;;;27.83;12.63;;;9.10;99.90;;;;;;5051151;28;20466;-54
2021/12/15 00:36:52;;;;;;;37.67;14.00;;;9.10;99.90;;;;;;5051729;28;20476;-51
2021/12/15 00:39:22;;;;;;;40.77;13.87;;;9.10;99.90;;;;;;5050940;28;21020;-53
2021/12/15 00:41:51;;;;;;;34.53;14.07;;;9.10;99.90;;;;;;5051186;28;21024;-53
2021/12/15 00:44:18;;;;;;;30.27;14.20;;;9.10;99.90;;;;;;5050875;28;20513;-56
2021/12/15 00:46:48;;;;;;;27.77;12.13;;;9.10;99.90;;;;;;5051017;28;20437;-52
2021/12/15 00:49:15;;;;;;;29.90;13.37;;;9.10;99.90;;;;;;5050142;28;20456;-55
2021/12/15 00:51:42;;;;;;;29.03;11.50;;;9.20;99.90;;;;;;5050639;28;20425;-54
2021/12/15 00:54:11;;;;;;;26.77;11.83;;;9.10;99.90;;;;;;5050059;28;20443;-51
2021/12/15 00:56:38;;;;;;;35.10;13.00;;;9.20;99.90;;;;;;5050248;28;20819;-53
2021/12/15 00:59:07;;;;;;;28.87;11.90;;;9.20;99.90;;;;;;5050182;28;20492;-54
2021/12/15 01:01:36;;;;;;;22.77;10.83;;;9.10;99.90;;;;;;5050551;28;20806;-53
2021/12/15 01:04:06;;;;;;;33.70;12.00;;;9.10;99.90;;;;;;5051274;28;20447;-49
2021/12/15 01:06:34;;;;;;;27.73;11.50;;;9.10;99.90;;;;;;5050332;28;20458;-55
2021/12/15 01:09:09;;;;;;;23.17;11.30;;;9.10;99.90;;;;;;5050746;28;20438;-55
2021/12/15 01:14:34;;;;;;;28.97;14.50;;;9.10;99.90;;;;;;5049989;28;20458;-54
2021/12/15 01:19:53;;;;;;;31.20;12.50;;;9.10;99.90;;;;;;5050624;28;20518;-51
2021/12/15 01:22:26;;;;;;;32.30;13.60;;;9.00;99.90;;;;;;5050912;28;20453;-53
2021/12/15 01:24:55;;;;;;;24.67;12.60;;;9.00;99.90;;;;;;5051225;28;20538;-54
2021/12/15 01:27:23;;;;;;;27.50;11.40;;;9.00;99.90;;;;;;5054634;28;20812;-53
2021/12/15 01:29:50;;;;;;;26.17;13.40;;;9.00;99.90;;;;;;5054160;28;20473;-54
2021/12/15 01:32:18;;;;;;;26.47;12.60;;;9.00;99.90;;;;;;5055013;28;20453;-51
2021/12/15 01:34:45;;;;;;;32.37;13.30;;;9.00;99.90;;;;;;5054115;28;20448;-51
2021/12/15 01:37:13;;;;;;;26.67;14.37;;;9.00;99.90;;;;;;5054640;28;20433;-52
2021/12/15 01:39:41;;;;;;;32.80;12.20;;;9.00;99.90;;;;;;5053591;28;20496;-55
2021/12/15 01:42:08;;;;;;;30.43;13.17;;;9.00;99.90;;;;;;5052948;28;20458;-53
2021/12/15 01:47:21;;;;;;;32.87;12.80;;;9.10;99.90;;;;;;5053060;28;20450;-54
2021/12/15 01:49:51;;;;;;;28.00;12.63;;;9.10;99.90;;;;;;5053553;28;20439;-53
2021/12/15 01:52:22;;;;;;;30.40;12.90;;;9.10;99.90;;;;;;5053470;28;20430;-53
2021/12/15 01:54:53;;;;;;;25.90;11.23;;;9.10;99.90;;;;;;5053433;28;20475;-57
2021/12/15 01:57:21;;;;;;;26.93;13.13;;;9.10;99.90;;;;;;5052726;28;20421;-54
2021/12/15 01:59:49;;;;;;;31.67;13.50;;;9.10;99.90;;;;;;5051790;28;20494;-54
2021/12/15 02:02:18;;;;;;;27.13;13.77;;;9.10;99.90;;;;;;5052812;28;20432;-52
2021/12/15 02:04:45;;;;;;;28.87;14.20;;;9.10;99.90;;;;;;5051903;28;21005;-55
2021/12/15 02:07:16;;;;;;;33.07;12.50;;;9.20;99.90;;;;;;5053293;28;20447;-53
2021/12/15 02:10:02;;;;;;;34.77;12.80;;;9.20;99.90;;;;;;5052695;28;20430;-55
2021/12/15 02:12:33;;;;;;;29.07;10.97;;;9.20;99.90;;;;;;5052100;28;20432;-53
2021/12/15 02:15:01;;;;;;;26.40;12.57;;;9.20;99.90;;;;;;5052493;28;20480;-54
2021/12/15 02:17:29;;;;;;;29.57;11.90;;;9.20;99.90;;;;;;5052249;28;20436;-50
2021/12/15 02:19:56;;;;;;;31.20;11.70;;;9.10;99.90;;;;;;5051513;28;20522;-53
2021/12/15 02:22:25;;;;;;;23.13;10.80;;;9.20;99.90;;;;;;5052044;28;20918;-52
2021/12/15 02:24:53;;;;;;;35.57;14.40;;;9.20;99.90;;;;;;5052117;28;20452;-51
2021/12/15 02:27:21;;;;;;;32.40;12.50;;;9.20;99.90;;;;;;5051715;28;20444;-49
2021/12/15 02:29:52;;;;;;;23.73;12.40;;;9.20;99.90;;;;;;5051616;28;20448;-49
2021/12/15 02:32:31;;;;;;;23.37;11.37;;;9.20;99.90;;;;;;5052333;28;20443;-54
2021/12/15 02:37:14;;;;;;;19.20;11.20;;;9.20;99.90;;;;;;5052041;28;20440;-53
2021/12/15 02:37:56;;;;;;;26.20;10.43;;;9.20;99.90;;;;;;5051393;28;20451;-53
2021/12/15 02:40:23;;;;;;;20.73;10.33;;;9.20;99.90;;;;;;5051720;28;20485;-52
2021/12/15 02:42:50;;;;;;;30.10;10.33;;;9.20;99.90;;;;;;5052617;28;20499;-55
2021/12/15 02:45:22;;;;;;;37.47;11.87;;;9.10;99.90;;;;;;5051966;28;20789;-52
2021/12/15 02:47:49;;;;;;;21.57;10.10;;;9.10;99.90;;;;;;5051447;28;20471;-50
2021/12/15 02:50:19;;;;;;;27.17;11.47;;;9.20;99.90;;;;;;5050936;28;20470;-54
2021/12/15 02:52:47;;;;;;;22.80;9.80;;;9.20;99.90;;;;;;5051349;28;20447;-53
2021/12/15 02:55:16;;;;;;;27.63;11.87;;;9.20;99.90;;;;;;5051466;28;20490;-55
2021/12/15 02:57:44;;;;;;;23.83;11.50;;;9.20;99.90;;;;;;5051087;28;20474;-54
2021/12/15 03:00:19;;;;;;;24.33;10.27;;;9.20;99.90;;;;;;5051217;28;20498;-53
2021/12/15 03:03:32;;;;;;;29.50;12.23;;;9.20;99.90;;;;;;5051608;28;20508;-55
2021/12/15 03:06:05;;;;;;;19.63;9.00;;;9.30;99.90;;;;;;5051763;28;20502;-57
2021/12/15 03:08:49;;;;;;;29.27;12.70;;;9.30;99.90;;;;;;5052197;28;20941;-54
2021/12/15 03:16:50;;;;;;;19.70;11.13;;;9.20;99.90;;;;;;5014309;28;20444;-52
2021/12/15 03:19:17;;;;;;;18.60;9.50;;;9.20;99.90;;;;;;5052343;28;20471;-52
2021/12/15 03:21:44;;;;;;;22.50;11.10;;;9.10;99.90;;;;;;5051536;28;20531;-55
2021/12/15 03:24:17;;;;;;;28.57;11.83;;;9.20;99.90;;;;;;5052072;28;20450;-55
2021/12/15 03:26:56;;;;;;;28.67;12.17;;;9.20;99.90;;;;;;5051811;28;20477;-54
2021/12/15 03:35:05;;;;;;;18.57;10.00;;;9.20;99.90;;;;;;5051520;28;20450;-55
2021/12/15 03:37:35;;;;;;;27.03;13.00;;;9.20;99.90;;;;;;5050541;28;20489;-54
2021/12/15 03:40:06;;;;;;;22.40;10.40;;;9.20;99.90;;;;;;5050331;28;20485;-55
2021/12/15 03:42:40;;;;;;;19.60;10.93;;;9.20;99.90;;;;;;5051225;28;20472;-54
2021/12/15 03:45:10;;;;;;;19.03;10.43;;;9.20;99.90;;;;;;5050782;28;20468;-53
2021/12/15 03:47:41;;;;;;;17.83;9.00;;;9.30;99.90;;;;;;5050336;28;20447;-50
2021/12/15 03:50:12;;;;;;;23.63;10.70;;;9.30;99.90;;;;;;5050811;28;20472;-54
2021/12/15 03:52:39;;;;;;;24.63;11.80;;;9.20;99.90;;;;;;5050828;28;20479;-55
2021/12/15 03:55:08;;;;;;;25.63;10.33;;;9.20;99.90;;;;;;5050535;28;20514;-54
2021/12/15 03:57:37;;;;;;;23.40;10.03;;;9.20;99.90;;;;;;5050195;28;20595;-53
2021/12/15 04:00:09;;;;;;;24.17;11.47;;;9.30;99.90;;;;;;5050028;28;20506;-52
2021/12/15 04:02:37;;;;;;;20.20;8.47;;;9.20;99.90;;;;;;5050494;28;20431;-55
2021/12/15 04:05:05;;;;;;;21.27;10.60;;;9.30;99.90;;;;;;5050878;28;20444;-54
2021/12/15 04:07:32;;;;;;;22.57;11.50;;;9.30;99.90;;;;;;5049426;28;20801;-55
2021/12/15 04:09:59;;;;;;;24.47;10.80;;;9.30;99.90;;;;;;5049628;28;20458;-55
2021/12/15 04:12:26;;;;;;;17.03;8.27;;;9.30;99.90;;;;;;5049987;28;20458;-50
2021/12/15 04:15:07;;;;;;;20.97;10.23;;;9.30;99.90;;;;;;5050639;28;20455;-48
2021/12/15 04:17:36;;;;;;;21.53;12.10;;;9.30;99.90;;;;;;5049739;28;20465;-55
2021/12/15 04:20:09;;;;;;;24.97;10.53;;;9.30;99.90;;;;;;5049305;28;20526;-54
2021/12/15 04:22:37;;;;;;;24.80;10.90;;;9.30;99.90;;;;;;5050676;28;20514;-53
2021/12/15 04:25:07;;;;;;;20.93;10.10;;;9.40;99.90;;;;;;5050276;28;20444;-52
2021/12/15 04:27:34;;;;;;;15.53;8.73;;;9.30;99.90;;;;;;5050290;28;20471;-54
2021/12/15 04:30:05;;;;;;;19.07;9.70;;;9.30;99.90;;;;;;5050353;28;20447;-50
2021/12/15 04:32:37;;;;;;;21.00;10.50;;;9.20;99.90;;;;;;5050794;28;20479;-54
2021/12/15 04:35:05;;;;;;;20.70;8.87;;;9.20;99.90;;;;;;5051139;28;20471;-52
2021/12/15 04:37:32;;;;;;;20.63;9.70;;;9.20;99.90;;;;;;5050766;28;20462;-54
2021/12/15 04:39:59;;;;;;;15.57;9.93;;;9.20;99.90;;;;;;5049546;28;20503;-50
2021/12/15 04:42:27;;;;;;;12.90;7.70;;;9.20;99.90;;;;;;5049184;28;20786;-52
2021/12/15 04:44:56;;;;;;;19.67;9.13;;;9.20;99.90;;;;;;5049012;28;20452;-55
2021/12/15 04:47:26;;;;;;;20.97;10.63;;;9.20;99.90;;;;;;5049792;28;20475;-53
2021/12/15 04:49:56;;;;;;;15.67;8.93;;;9.20;99.90;;;;;;5048755;28;20497;-54
2021/12/15 04:52:28;;;;;;;17.90;9.10;;;9.20;99.90;;;;;;5049471;28;20475;-50
2021/12/15 04:54:56;;;;;;;17.37;9.70;;;9.30;99.90;;;;;;5050154;28;20436;-54
2021/12/15 04:57:23;;;;;;;18.90;9.30;;;9.30;99.90;;;;;;5049839;28;20486;-51
2021/12/15 04:59:51;;;;;;;26.20;10.40;;;9.30;99.90;;;;;;5050386;28;20489;-50
2021/12/15 05:02:20;;;;;;;16.20;8.97;;;9.30;99.90;;;;;;5053646;28;20517;-56
2021/12/15 05:04:50;;;;;;;19.83;8.93;;;9.30;99.90;;;;;;5052899;28;20444;-53
2021/12/15 05:07:19;;;;;;;20.77;10.80;;;9.40;99.90;;;;;;5052829;28;20474;-51
2021/12/15 05:09:49;;;;;;;21.17;10.13;;;9.40;99.90;;;;;;5053561;28;20439;-55
2021/12/15 05:12:17;;;;;;;25.27;10.87;;;9.40;99.90;;;;;;5052470;28;20471;-54
2021/12/15 05:14:44;;;;;;;19.80;8.50;;;9.40;99.90;;;;;;5053145;28;20502;-54
2021/12/15 05:17:12;;;;;;;15.33;8.90;;;9.40;99.90;;;;;;5052358;28;20475;-56
2021/12/15 05:19:39;;;;;;;14.07;6.90;;;9.40;99.90;;;;;;5052083;28;20484;-54
2021/12/15 05:22:07;;;;;;;21.03;9.50;;;9.40;99.90;;;;;;5052355;28;20479;-55
2021/12/15 05:24:35;;;;;;;18.40;8.70;;;9.40;99.90;;;;;;5051397;28;20453;-55
2021/12/15 05:27:05;;;;;;;18.20;9.37;;;9.50;99.90;;;;;;5051295;28;20472;-55
2021/12/15 05:29:32;;;;;;;17.07;8.60;;;9.50;99.90;;;;;;5052560;28;20444;-54
2021/12/15 05:31:59;;;;;;;20.33;9.70;;;9.50;99.90;;;;;;5052031;28;20495;-55
2021/12/15 05:34:26;;;;;;;18.03;8.50;;;9.50;99.90;;;;;;5051696;28;20440;-53
2021/12/15 05:36:55;;;;;;;16.70;8.80;;;9.50;99.90;;;;;;5051956;28;20467;-61
2021/12/15 05:39:24;;;;;;;14.70;8.33;;;9.50;99.90;;;;;;5045257;28;20470;-60
2021/12/15 05:41:53;;;;;;;23.43;9.50;;;9.50;99.90;;;;;;5043468;28;20487;-61
2021/12/15 05:44:22;;;;;;;14.20;7.80;;;9.50;99.90;;;;;;5044161;28;20428;-61
2021/12/15 05:46:49;;;;;;;21.87;10.60;;;9.50;99.90;;;;;;5043363;28;20473;-62
2021/12/15 05:49:16;;;;;;;23.50;10.53;;;9.50;99.90;;;;;;5043095;28;20483;-62
2021/12/15 05:51:43;;;;;;;20.97;9.00;;;9.50;99.90;;;;;;5043844;28;20459;-60
2021/12/15 05:54:10;;;;;;;20.80;9.83;;;9.50;99.90;;;;;;5043815;28;20511;-60
2021/12/15 05:56:39;;;;;;;29.30;10.50;;;9.50;99.90;;;;;;5043372;28;20472;-62
2021/12/15 05:59:06;;;;;;;22.53;9.80;;;9.50;99.90;;;;;;5043226;28;20426;-59
2021/12/15 06:01:33;;;;;;;21.17;10.43;;;9.50;99.90;;;;;;5043531;28;20485;-60
2021/12/15 06:04:01;;;;;;;19.73;8.40;;;9.60;99.90;;;;;;5042999;28;20443;-60
2021/12/15 06:06:28;;;;;;;22.23;9.00;;;9.60;99.90;;;;;;5042926;28;20446;-60
2021/12/15 06:08:56;;;;;;;16.20;8.77;;;9.60;99.90;;;;;;5044120;28;20532;-61
2021/12/15 06:11:23;;;;;;;15.83;7.90;;;9.50;99.90;;;;;;5044318;28;20473;-62
2021/12/15 06:13:53;;;;;;;18.80;8.27;;;9.50;99.90;;;;;;5045561;28;20481;-63
2021/12/15 06:16:22;;;;;;;19.53;9.30;;;9.50;99.90;;;;;;5045227;28;20864;-62
2021/12/15 06:18:50;;;;;;;17.97;9.53;;;9.50;99.90;;;;;;5044744;28;20506;-62
2021/12/15 06:21:17;;;;;;;19.20;9.70;;;9.50;99.90;;;;;;5044125;28;20492;-61
2021/12/15 06:23:44;;;;;;;16.50;9.30;;;9.50;99.90;;;;;;5043838;28;20445;-61
2021/12/15 06:26:11;;;;;;;20.73;10.23;;;9.40;99.90;;;;;;5043508;28;20482;-61
2021/12/15 06:28:39;;;;;;;14.13;7.33;;;9.50;99.90;;;;;;5043217;28;20545;-61
2021/12/15 06:31:11;;;;;;;15.20;8.57;;;9.50;99.90;;;;;;5042849;28;20500;-61
2021/12/15 06:33:43;;;;;;;15.40;8.00;;;9.50;99.90;;;;;;5043046;28;20465;-61
2021/12/15 06:36:13;;;;;;;19.00;9.80;;;9.50;99.90;;;;;;5042290;28;20434;-60
2021/12/15 06:38:43;;;;;;;18.13;8.63;;;9.50;99.90;;;;;;5036741;28;20955;-61
2021/12/15 06:41:12;;;;;;;16.77;9.60;;;9.50;99.90;;;;;;5036314;28;20491;-58
2021/12/15 06:43:43;;;;;;;20.03;9.87;;;9.50;99.90;;;;;;5036728;28;20511;-61
2021/12/15 06:46:35;;;;;;;18.90;9.13;;;9.40;99.90;;;;;;5039045;28;20442;-61
2021/12/15 06:58:10;;;;;;;15.03;7.47;;;9.40;99.90;;;;;;5042809;28;20415;-61
2021/12/15 07:00:23;;;;;;;17.60;9.40;;;9.40;99.90;;;;;;5048977;28;20800;-61
2021/12/15 07:02:52;;;;;;;16.83;8.63;;;9.40;99.90;;;;;;5044970;28;20491;-61
2021/12/15 07:05:20;;;;;;;18.93;8.40;;;9.40;99.90;;;;;;5042089;28;20450;-60
2021/12/15 07:07:48;;;;;;;12.13;8.23;;;9.40;99.90;;;;;;5042431;28;20475;-61
2021/12/15 07:10:19;;;;;;;17.07;7.50;;;9.50;99.90;;;;;;5042416;28;20484;-61
2021/12/15 07:12:46;;;;;;;15.40;8.57;;;9.40;99.90;;;;;;5042982;28;20479;-59
2021/12/15 07:15:13;;;;;;;15.33;8.77;;;9.40;99.90;;;;;;5042623;28;20451;-60
2021/12/15 07:17:40;;;;;;;17.37;8.37;;;9.40;99.90;;;;;;5042471;28;20516;-56
2021/12/15 07:23:19;;;;;;;24.63;10.40;;;9.40;99.90;;;;;;4980717;28;20943;-53
2021/12/15 07:25:52;;;;;;;13.20;7.33;;;9.30;99.90;;;;;;4981325;28;20432;-56
2021/12/15 07:28:24;;;;;;;18.50;8.30;;;9.30;99.90;;;;;;5012600;28;20445;-54
2021/12/15 07:30:51;;;;;;;17.20;8.30;;;9.30;99.90;;;;;;5041885;28;20546;-56
2021/12/15 07:33:18;;;;;;;13.13;7.27;;;9.30;99.90;;;;;;5041774;28;20529;-55
2021/12/15 07:35:47;;;;;;;18.03;8.53;;;9.30;99.90;;;;;;5042189;28;20499;-53
2021/12/15 07:38:14;;;;;;;21.23;10.80;;;9.30;99.90;;;;;;5041516;28;20529;-54
2021/12/15 07:40:42;;;;;;;16.27;8.77;;;9.30;99.90;;;;;;5041595;28;20871;-54
2021/12/15 07:43:13;;;;;;;13.03;7.37;;;9.30;99.90;;;;;;5042246;28;20503;-56
2021/12/15 07:45:43;;;;;;;14.17;6.40;;;9.30;99.90;;;;;;5041451;28;20422;-53
2021/12/15 07:48:12;;;;;;;15.60;8.97;;;9.30;99.90;;;;;;5041252;28;20464;-53
2021/12/15 07:50:41;;;;;;;16.67;9.10;;;9.30;99.90;;;;;;5042016;28;20437;-56
2021/12/15 07:53:09;;;;;;;15.73;9.13;;;9.30;99.90;;;;;;5041774;28;20470;-55
2021/12/15 07:55:37;;;;;;;19.80;11.30;;;9.30;99.90;;;;;;5041595;28;20444;-56
2021/12/15 07:58:06;;;;;;;14.90;8.37;;;9.40;99.90;;;;;;5041664;28;20474;-52
2021/12/15 08:00:34;;;;;;;14.77;8.23;;;9.30;99.90;;;;;;5040713;28;20467;-52
2021/12/15 08:03:01;;;;;;;14.93;7.37;;;9.30;99.90;;;;;;5041379;28;20452;-55
2021/12/15 08:05:29;;;;;;;15.27;8.40;;;9.30;99.90;;;;;;5041357;28;20482;-56
2021/12/15 08:07:56;;;;;;;15.13;8.10;;;9.40;99.90;;;;;;5041539;28;20443;-56
2021/12/15 08:10:25;;;;;;;14.37;8.33;;;9.40;99.90;;;;;;5041148;28;20428;-56
2021/12/15 08:12:52;;;;;;;19.07;9.40;;;9.40;99.90;;;;;;5040999;28;21018;-54
2021/12/15 08:15:20;;;;;;;15.97;8.30;;;9.40;99.90;;;;;;5040861;28;20439;-56
2021/12/15 08:17:51;;;;;;;15.53;7.10;;;9.40;99.90;;;;;;5040476;28;20473;-57
2021/12/15 08:20:20;;;;;;;15.00;8.10;;;9.40;99.90;;;;;;5040960;28;20478;-53
2021/12/15 08:22:47;;;;;;;15.40;8.40;;;9.40;99.90;;;;;;5041385;28;20487;-52
2021/12/15 08:25:16;;;;;;;20.73;7.07;;;9.40;99.90;;;;;;5040556;28;20830;-56
2021/12/15 08:27:46;;;;;;;15.13;9.23;;;9.40;99.90;;;;;;5041248;28;20962;-51
2021/12/15 08:30:20;;;;;;;11.70;7.40;;;9.40;99.90;;;;;;5042724;28;20963;-55
2021/12/15 08:32:48;;;;;;;14.70;8.40;;;9.40;99.90;;;;;;5043660;28;20894;-54
2021/12/15 08:35:16;;;;;;;9.90;6.60;;;9.40;99.90;;;;;;5043784;28;20514;-54
2021/12/15 08:37:44;;;;;;;10.83;7.60;;;9.50;99.90;;;;;;5043278;28;20455;-53
2021/12/15 08:40:12;;;;;;;21.07;8.40;;;9.50;99.90;;;;;;5042538;28;20501;-56
2021/12/15 08:42:40;;;;;;;16.43;9.37;;;9.50;99.90;;;;;;5042007;28;20434;-55
2021/12/15 08:45:10;;;;;;;14.03;6.70;;;9.50;99.90;;;;;;5041087;28;20481;-56
2021/12/15 08:47:40;;;;;;;15.10;8.30;;;9.50;99.90;;;;;;5040072;28;20478;-56
2021/12/15 08:50:10;;;;;;;18.53;8.20;;;9.50;99.90;;;;;;5041191;28;20498;-54
2021/12/15 08:52:37;;;;;;;14.83;9.93;;;9.50;99.90;;;;;;5042082;28;20474;-55
2021/12/15 08:55:07;;;;;;;14.27;8.13;;;9.60;99.90;;;;;;5042123;28;20481;-57
2021/12/15 08:57:34;;;;;;;19.57;9.20;;;9.60;99.90;;;;;;5041926;28;20448;-56
2021/12/15 09:00:01;;;;;;;12.10;7.20;;;9.60;99.90;;;;;;5040977;28;20456;-53
2021/12/15 09:02:30;;;;;;;17.30;8.40;;;9.70;99.90;;;;;;5040290;28;20456;-55
2021/12/15 09:04:57;;;;;;;17.63;8.70;;;9.70;99.90;;;;;;5039792;28;20474;-54
2021/12/15 09:07:24;;;;;;;9.27;6.00;;;9.60;99.90;;;;;;5039875;28;20779;-54
2021/12/15 09:09:51;;;;;;;14.97;8.90;;;9.70;99.90;;;;;;5039569;28;20974;-54
2021/12/15 09:12:19;;;;;;;10.50;6.20;;;9.60;99.90;;;;;;5039580;28;20520;-58
2021/12/15 09:14:46;;;;;;;17.60;8.30;;;9.60;99.90;;;;;;5041056;28;20958;-54
2021/12/15 09:17:14;;;;;;;16.47;8.07;;;9.60;99.90;;;;;;5039600;28;20778;-54
2021/12/15 09:19:42;;;;;;;20.90;8.20;;;9.70;99.90;;;;;;5040354;28;20464;-56
2021/12/15 09:22:10;;;;;;;16.27;8.17;;;9.70;99.90;;;;;;5039738;28;20483;-55
2021/12/15 09:24:37;;;;;;;16.47;7.70;;;9.70;99.90;;;;;;5039338;28;20474;-53
2021/12/15 09:27:04;;;;;;;14.43;8.33;;;9.80;99.90;;;;;;5039516;28;20549;-56
2021/12/15 09:29:32;;;;;;;14.50;7.33;;;9.80;99.90;;;;;;5039632;28;20472;-54
2021/12/15 09:31:59;;;;;;;18.13;7.73;;;9.90;99.90;;;;;;5039086;28;20477;-54
2021/12/15 09:34:26;;;;;;;12.53;7.63;;;9.90;99.90;;;;;;5039867;28;20940;-50
2021/12/15 09:36:55;;;;;;;16.10;8.80;;;9.90;99.90;;;;;;5039541;28;20449;-52
2021/12/15 09:39:23;;;;;;;17.57;7.80;;;9.90;99.90;;;;;;5039647;28;20485;-55
2021/12/15 09:41:52;;;;;;;14.63;7.13;;;9.80;99.90;;;;;;5040209;28;20489;-54
2021/12/15 09:44:23;;;;;;;10.80;8.33;;;9.80;99.90;;;;;;5041155;28;20483;-50
2021/12/15 09:47:18;;;;;;;12.30;5.90;;;9.80;99.90;;;;;;5044354;28;20451;-52
2021/12/15 10:06:32;;;;;;;11.90;6.17;;;9.80;99.90;;;;;;5030086;28;20440;-54
2021/12/15 10:12:19;;;;;;;11.40;7.90;;;9.80;99.90;;;;;;4982505;28;20431;-54
2021/12/15 10:17:45;;;;;;;14.93;7.67;;;9.80;99.90;;;;;;5043065;28;20461;-53
2021/12/15 10:20:20;;;;;;;17.33;8.87;;;9.80;99.90;;;;;;5042852;28;20481;-51
2021/12/15 10:22:51;;;;;;;15.00;8.30;;;9.80;99.90;;;;;;5042796;28;20482;-51
2021/12/15 10:25:24;;;;;;;17.43;7.60;;;9.90;99.90;;;;;;5044037;28;20472;-55
2021/12/15 10:27:53;;;;;;;13.57;7.50;;;9.90;99.90;;;;;;5047748;28;20420;-52
2021/12/15 10:30:25;;;;;;;18.20;8.97;;;9.90;99.90;;;;;;5055382;28;20459;-49
2021/12/15 10:32:59;;;;;;;18.60;8.10;;;10.00;99.90;;;;;;5047287;28;20437;-53
2021/12/15 10:35:30;;;;;;;18.47;8.40;;;9.90;99.90;;;;;;5040575;28;21072;-52
2021/12/15 10:38:18;;;;;;;18.00;8.27;;;10.00;99.90;;;;;;5042365;28;20520;-56
2021/12/15 10:40:49;;;;;;;11.73;6.37;;;10.00;99.90;;;;;;5041267;28;20536;-55
2021/12/15 10:43:17;;;;;;;16.67;8.90;;;10.00;99.90;;;;;;5041669;28;20506;-52
2021/12/15 10:45:48;;;;;;;12.40;7.03;;;10.00;99.90;;;;;;5041687;28;20539;-52
2021/12/15 10:48:35;;;;;;;11.20;6.30;;;10.00;99.90;;;;;;5041662;28;20475;-55
2021/12/15 10:51:05;;;;;;;14.27;6.20;;;10.00;99.90;;;;;;5038679;28;20439;-53
2021/12/15 10:53:35;;;;;;;9.80;6.20;;;10.00;99.90;;;;;;5047065;28;20435;-53
2021/12/15 10:56:15;;;;;;;13.00;6.73;;;10.00;99.90;;;;;;5042543;28;20810;-54
2021/12/15 10:58:44;;;;;;;18.53;7.47;;;9.90;99.90;;;;;;5040882;28;20468;-55
2021/12/15 11:01:32;;;;;;;14.60;7.97;;;9.90;99.90;;;;;;5054265;28;20470;-51
2021/12/15 11:04:00;;;;;;;12.13;7.67;;;9.90;99.90;;;;;;5056694;28;20996;-55
2021/12/15 11:06:33;;;;;;;13.30;6.70;;;9.90;99.90;;;;;;5053153;28;20466;-56
2021/12/15 11:09:14;;;;;;;12.43;6.90;;;9.90;99.90;;;;;;5050186;28;20470;-54
2021/12/15 11:11:59;;;;;;;14.40;6.47;;;9.90;99.90;;;;;;5050495;28;20446;-53
2021/12/15 11:14:30;;;;;;;10.13;6.00;;;9.90;99.90;;;;;;5045548;28;20468;-53
2021/12/15 11:17:06;;;;;;;13.50;6.87;;;10.00;99.90;;;;;;5043676;28;20523;-54
2021/12/15 11:19:48;;;;;;;17.33;7.20;;;10.00;99.90;;;;;;5041818;28;20434;-56
2021/12/15 11:22:38;;;;;;;12.40;6.43;;;10.10;99.90;;;;;;5041732;28;20466;-50
2021/12/15 11:25:08;;;;;;;8.83;5.77;;;10.10;99.90;;;;;;5041424;28;20475;-54
2021/12/15 11:27:37;;;;;;;10.80;5.57;;;10.10;99.90;;;;;;5041349;28;20476;-53
2021/12/15 11:30:07;;;;;;;9.70;6.00;;;10.10;99.90;;;;;;5036762;28;20468;-52
2021/12/15 11:32:45;;;;;;;14.47;6.47;;;10.10;99.90;;;;;;5029694;28;20494;-52
2021/12/15 11:35:17;;;;;;;11.23;6.60;;;10.10;99.90;;;;;;5022850;28;20451;-55
2021/12/15 11:37:59;;;;;;;10.70;6.43;;;10.10;99.90;;;;;;5048964;28;20479;-47
2021/12/15 11:40:30;;;;;;;11.87;7.10;;;10.10;99.90;;;;;;5049186;28;20459;-55
2021/12/15 11:43:00;;;;;;;11.20;6.53;;;10.20;99.90;;;;;;5041455;28;20520;-48
2021/12/15 11:45:28;;;;;;;13.07;7.00;;;10.20;99.90;;;;;;5041416;28;20441;-53
2021/12/15 11:48:14;;;;;;;13.83;7.83;;;10.20;99.90;;;;;;5041659;28;20451;-52
2021/12/15 11:50:43;;;;;;;11.23;5.83;;;10.30;99.90;;;;;;5041214;28;20440;-52
2021/12/15 11:53:23;;;;;;;11.53;6.33;;;10.30;99.90;;;;;;5042466;28;20483;-54
2021/12/15 11:55:50;;;;;;;10.13;5.90;;;10.40;99.90;;;;;;5036871;28;20519;-60
2021/12/15 11:58:30;;;;;;;12.30;7.03;;;10.40;99.90;;;;;;5040842;28;20437;-55
2021/12/15 12:01:00;;;;;;;9.90;5.70;;;10.40;99.90;;;;;;5041781;28;20531;-54
2021/12/15 12:03:27;;;;;;;7.90;5.13;;;10.40;99.90;;;;;;5041180;28;20456;-55
2021/12/15 12:05:54;;;;;;;9.33;6.67;;;10.40;99.90;;;;;;5046456;28;20471;-53
2021/12/15 12:08:21;;;;;;;9.00;5.03;;;10.50;99.90;;;;;;5038898;28;20549;-51
2021/12/15 12:10:50;;;;;;;12.77;7.07;;;10.50;99.90;;;;;;5039677;28;20467;-53
2021/12/15 12:13:26;;;;;;;8.57;5.30;;;10.50;99.90;;;;;;5039836;28;20453;-53
2021/12/15 12:15:56;;;;;;;7.20;4.80;;;10.60;99.90;;;;;;5039954;28;20446;-52
2021/12/15 12:18:26;;;;;;;8.83;5.20;;;10.70;99.90;;;;;;5042900;28;20429;-51
2021/12/15 12:20:55;;;;;;;8.67;5.03;;;10.70;99.90;;;;;;5038208;28;21057;-52
2021/12/15 12:23:26;;;;;;;8.67;6.00;;;10.70;99.90;;;;;;5039584;28;20504;-55
2021/12/15 12:25:55;;;;;;;8.90;5.40;;;10.80;99.90;;;;;;5039581;28;20932;-56
2021/12/15 12:28:27;;;;;;;8.43;4.50;;;10.80;99.90;;;;;;5041287;28;20482;-54
2021/12/15 12:30:58;;;;;;;11.87;5.47;;;10.80;99.90;;;;;;5041670;28;20462;-51
2021/12/15 12:33:27;;;;;;;7.80;5.07;;;10.90;99.90;;;;;;5039291;28;20468;-53
2021/12/15 12:35:57;;;;;;;9.53;4.80;;;10.90;99.90;;;;;;5039080;28;20878;-55
2021/12/15 12:38:27;;;;;;;8.43;5.60;;;11.00;99.90;;;;;;5039092;28;20444;-53
2021/12/15 12:40:57;;;;;;;13.13;5.27;;;11.00;99.90;;;;;;5045322;28;20500;-52
2021/12/15 12:43:28;;;;;;;9.07;5.17;;;10.90;99.90;;;;;;5042447;28;20437;-51
2021/12/15 12:45:58;;;;;;;9.60;5.47;;;11.00;99.90;;;;;;5039100;28;20526;-53
2021/12/15 12:48:37;;;;;;;9.67;5.90;;;11.00;99.90;;;;;;5038525;28;20440;-52
2021/12/15 12:59:41;;;;;;;9.00;5.70;;;10.90;99.90;;;;;;5039697;28;20424;-55
2021/12/15 13:02:32;;;;;;;10.37;5.23;;;10.90;99.90;;;;;;5040280;28;20558;-57
2021/12/15 13:04:59;;;;;;;8.23;4.57;;;10.80;99.90;;;;;;5047159;28;20456;-53
2021/12/15 13:07:48;;;;;;;7.93;4.57;;;10.70;99.90;;;;;;5042693;28;20474;-52
2021/12/15 13:10:16;;;;;;;9.27;5.10;;;10.80;99.90;;;;;;5039650;28;20443;-52
2021/12/15 13:12:47;;;;;;;9.30;4.40;;;10.80;99.90;;;;;;5039569;28;20475;-53
2021/12/15 13:15:20;;;;;;;8.67;6.03;;;10.80;99.90;;;;;;5039437;28;20452;-52
2021/12/15 13:18:00;;;;;;;8.90;4.83;;;10.80;99.90;;;;;;5038753;28;20438;-55
2021/12/15 13:20:30;;;;;;;8.10;3.90;;;10.80;99.90;;;;;;5039232;28;20436;-50
2021/12/15 13:23:07;;;;;;;7.87;4.87;;;10.80;99.90;;;;;;5043373;28;20491;-54
2021/12/15 13:28:44;;;;;;;7.33;3.70;;;10.70;99.90;;;;;;5043551;28;20415;-51
2021/12/15 13:31:16;;;;;;;11.33;7.30;;;10.70;99.90;;;;;;5043523;28;20575;-53
2021/12/15 13:33:48;;;;;;;11.20;5.97;;;10.70;99.90;;;;;;5043337;28;20772;-50
2021/12/15 13:36:18;;;;;;;7.87;4.93;;;10.70;99.90;;;;;;5042623;28;20463;-49
2021/12/15 13:38:49;;;;;;;14.20;5.80;;;10.70;99.90;;;;;;5043047;28;20506;-52
2021/12/15 13:41:31;;;;;;;11.03;5.10;;;10.70;99.90;;;;;;5042816;28;20495;-52
2021/12/15 13:44:02;;;;;;;9.23;4.83;;;10.70;99.90;;;;;;5043241;28;20442;-53
2021/12/15 13:46:53;;;;;;;8.50;5.10;;;10.70;99.90;;;;;;5044485;28;20468;-49
2021/12/15 13:49:42;;;;;;;7.87;4.23;;;10.70;99.90;;;;;;5039854;28;20452;-56
2021/12/15 13:52:21;;;;;;;10.23;5.60;;;10.80;99.90;;;;;;5034267;28;20471;-48
2021/12/15 13:54:53;;;;;;;9.27;5.90;;;10.70;99.90;;;;;;5042345;28;20450;-52
2021/12/15 13:57:23;;;;;;;7.13;5.30;;;10.80;99.90;;;;;;5042702;28;20441;-50
2021/12/15 14:00:08;;;;;;;8.07;6.13;;;10.70;99.90;;;;;;5042317;28;20452;-56
2021/12/15 14:02:38;;;;;;;11.20;5.93;;;10.80;99.90;;;;;;5043171;28;20463;-53
2021/12/15 14:05:21;;;;;;;12.47;5.60;;;10.80;99.90;;;;;;5042337;28;20474;-55
2021/12/15 14:07:50;;;;;;;10.00;5.20;;;10.70;99.90;;;;;;5042742;28;20429;-55